Cabo Frio, Brazil
Current Conditions -  °F | °C
As of 11:30 PM on Friday 19 Dec 2014 (Local Time) from SBCB Reporting Station
Clear Clear  
Wind Chill: 77°   Ceiling: Unl
Heat Index: 78°   Visibility: 6mi
Dew Point: 75°   Wind: 7mph
Humidity: 94%   Direction: 110°ESE
Pressure: 29.83"   Gusts: NA
Location:  22.89°S, 42.04°W
Report Text: SBCB 200130Z 11006KT CAVOK 25/24 Q1010
Loading
Personal Weather Stations






























Interactive Weather Map New forecast layout! Learn more

10-Day Weather Forecast

Advertisements
Track Severe Weather on mobile